Bookmark and Share
Track history (hours):
 

Iver Foss

More information available from US FCC via Universal Licensing System and Coast Guard Vessel Documentation Center.

Last reported at 2014-Mar-08 18:19 UTC. Time now 2014-Apr-16 10:34 UTC.
Position N 47°39' W 122°22'.
Warning: this ship's position is 38 days out of date.

Type: Tug. MMSI: 368351000.

NotesDate/timePositionNaut miles runAvg speedWind from/ knotsBaromVisibWave heightAir tempDewpointWater temp
2014-Mar-08 18:19N 47°39' W 122°22'0 0.0
2014-Mar-08 18:07N 47°39' W 122°22'0 0.0
2014-Mar-08 17:31N 47°39' W 122°22'0 0.0
2014-Mar-08 17:22N 47°39' W 122°22'0 0.0
2014-Mar-08 16:31N 47°39' W 122°22'0 0.0
2014-Mar-08 15:31N 47°39' W 122°22'0 0.0
2014-Mar-08 15:16N 47°39' W 122°22'2 2.4
2014-Mar-08 14:34N 47°40' W 122°24'0 0.0
2014-Mar-08 14:31N 47°40' W 122°24'5 5.1
2014-Mar-08 13:33N 47°44' W 122°28'0 6.6
2014-Mar-08 13:31N 47°45' W 122°28'7 7.5
2014-Mar-08 12:33N 47°52' W 122°29'0 6.7
2014-Mar-08 12:31N 47°52' W 122°29'5 5.1
2014-Mar-08 11:33N 47°56' W 122°33'0 3.1
2014-Mar-08 11:31N 47°56' W 122°33'3 3.1
2014-Mar-08 10:33N 47°58' W 122°37'3 3.1
2014-Mar-08 09:30N 48°01' W 122°39'11 3.3
2014-Mar-08 06:09N 48°10' W 122°49'3 4.7
2014-Mar-08 05:34N 48°11' W 122°53'7 7.4
2014-Mar-08 04:33N 48°12' W 123°04'7 7.4
2014-Mar-08 03:33N 48°11' W 123°15'7 7.2
2014-Mar-08 02:33N 48°11' W 123°26'7 7.2
2014-Mar-08 01:33N 48°12' W 123°37'9 8.5
2014-Mar-08 00:33N 48°12' W 123°50'40 8.9
2014-Mar-07 20:05N 48°26' W 124°45'  
2014-Mar-05 00:33N 38°23' W 124°01'9 9.3
2014-Mar-04 23:33N 38°15' W 123°56'9 8.9
2014-Mar-04 22:33N 38°06' W 123°52'10 9.1
2014-Mar-04 21:27N 37°57' W 123°47'  

Dump ship's entire track history

sailing weather and tide predictions

Iver Foss — WYE6442 — position and weather